sensor_id;sensor_type;location;lat;lon;timestamp;temperature;humidity
63371;DHT22;49504;48.336;14.472;2023-05-10T04:21:39;25.10;47.30
63371;DHT22;49504;48.336;14.472;2023-05-10T04:25:42;25.10;47.00
63371;DHT22;49504;48.336;14.472;2023-05-10T04:29:03;25.10;47.70
63371;DHT22;49504;48.336;14.472;2023-05-10T04:32:24;25.10;47.50
63371;DHT22;49504;48.336;14.472;2023-05-10T04:35:45;25.10;47.60
63371;DHT22;49504;48.336;14.472;2023-05-10T04:39:06;25.10;47.60
63371;DHT22;49504;48.336;14.472;2023-05-10T04:42:29;25.10;47.10
63371;DHT22;49504;48.336;14.472;2023-05-10T04:45:50;25.10;47.30
63371;DHT22;49504;48.336;14.472;2023-05-10T04:49:11;25.10;47.90
63371;DHT22;49504;48.336;14.472;2023-05-10T04:52:32;25.10;47.30
63371;DHT22;49504;48.336;14.472;2023-05-10T04:55:53;25.00;47.60
63371;DHT22;49504;48.336;14.472;2023-05-10T04:59:16;25.10;47.70
63371;DHT22;49504;48.336;14.472;2023-05-10T05:02:37;25.00;47.90
63371;DHT22;49504;48.336;14.472;2023-05-10T05:05:58;25.00;48.00
63371;DHT22;49504;48.336;14.472;2023-05-10T05:09:19;25.10;48.30
63371;DHT22;49504;48.336;14.472;2023-05-10T05:12:40;25.00;48.10
63371;DHT22;49504;48.336;14.472;2023-05-10T05:16:03;25.00;48.30
63371;DHT22;49504;48.336;14.472;2023-05-10T05:19:25;25.00;48.40
63371;DHT22;49504;48.336;14.472;2023-05-10T05:22:46;25.00;48.40
63371;DHT22;49504;48.336;14.472;2023-05-10T05:26:07;25.00;48.50
63371;DHT22;49504;48.336;14.472;2023-05-10T05:32:11;24.90;47.60
63371;DHT22;49504;48.336;14.472;2023-05-10T05:35:32;24.90;48.60
63371;DHT22;49504;48.336;14.472;2023-05-10T05:38:53;24.90;48.60
63371;DHT22;49504;48.336;14.472;2023-05-10T05:42:15;24.90;48.60
63371;DHT22;49504;48.336;14.472;2023-05-10T05:45:36;24.90;48.60
63371;DHT22;49504;48.336;14.472;2023-05-10T05:48:58;24.90;48.70
63371;DHT22;49504;48.336;14.472;2023-05-10T05:52:19;24.90;48.80
63371;DHT22;49504;48.336;14.472;2023-05-10T05:55:45;24.90;48.70
63371;DHT22;49504;48.336;14.472;2023-05-10T05:59:11;24.90;48.80
63371;DHT22;49504;48.336;14.472;2023-05-10T06:02:32;24.90;48.70
63371;DHT22;49504;48.336;14.472;2023-05-10T06:05:55;24.90;48.80
63371;DHT22;49504;48.336;14.472;2023-05-10T06:09:16;24.90;48.60
63371;DHT22;49504;48.336;14.472;2023-05-10T06:13:26;24.90;48.00
63371;DHT22;49504;48.336;14.472;2023-05-10T06:16:47;24.90;48.90
63371;DHT22;49504;48.336;14.472;2023-05-10T06:20:09;24.90;48.80
63371;DHT22;49504;48.336;14.472;2023-05-10T06:23:31;24.80;48.70
63371;DHT22;49504;48.336;14.472;2023-05-10T06:26:52;24.90;48.80
63371;DHT22;49504;48.336;14.472;2023-05-10T06:30:15;24.90;48.90
63371;DHT22;49504;48.336;14.472;2023-05-10T06:33:36;24.90;49.00
63371;DHT22;49504;48.336;14.472;2023-05-10T06:36:57;24.80;48.90
63371;DHT22;49504;48.336;14.472;2023-05-10T06:40:18;24.80;48.90
63371;DHT22;49504;48.336;14.472;2023-05-10T06:43:39;24.90;49.00
63371;DHT22;49504;48.336;14.472;2023-05-10T06:47:02;24.90;49.00
63371;DHT22;49504;48.336;14.472;2023-05-10T06:50:23;24.80;49.00
63371;DHT22;49504;48.336;14.472;2023-05-10T06:53:44;24.80;49.00
63371;DHT22;49504;48.336;14.472;2023-05-10T06:57:05;24.90;49.00
63371;DHT22;49504;48.336;14.472;2023-05-10T07:00:26;24.80;48.90
63371;DHT22;49504;48.336;14.472;2023-05-10T07:03:49;24.80;48.90
63371;DHT22;49504;48.336;14.472;2023-05-10T07:07:10;24.80;48.90
63371;DHT22;49504;48.336;14.472;2023-05-10T07:10:31;24.80;48.90
63371;DHT22;49504;48.336;14.472;2023-05-10T07:13:53;24.80;48.80
63371;DHT22;49504;48.336;14.472;2023-05-10T07:17:14;24.80;48.90
63371;DHT22;49504;48.336;14.472;2023-05-10T07:20:37;24.80;48.80
63371;DHT22;49504;48.336;14.472;2023-05-10T07:23:58;24.80;48.90
63371;DHT22;49504;48.336;14.472;2023-05-10T07:27:19;24.80;48.90
63371;DHT22;49504;48.336;14.472;2023-05-10T07:30:40;24.80;48.80
63371;DHT22;49504;48.336;14.472;2023-05-10T07:34:01;24.80;48.80
63371;DHT22;49504;48.336;14.472;2023-05-10T07:37:24;24.80;48.60
63371;DHT22;49504;48.336;14.472;2023-05-10T07:43:22;24.80;48.20
63371;DHT22;49504;48.336;14.472;2023-05-10T07:46:44;24.80;48.90
63371;DHT22;49504;48.336;14.472;2023-05-10T07:50:06;24.80;48.70
63371;DHT22;49504;48.336;14.472;2023-05-10T07:53:48;24.80;48.30
63371;DHT22;49504;48.336;14.472;2023-05-10T07:57:09;24.80;48.90
63371;DHT22;49504;48.336;14.472;2023-05-10T08:00:31;24.80;48.90
63371;DHT22;49504;48.336;14.472;2023-05-10T08:03:52;24.80;49.60
63371;DHT22;49504;48.336;14.472;2023-05-10T08:07:13;24.80;48.80
63371;DHT22;49504;48.336;14.472;2023-05-10T08:10:36;24.80;48.90
63371;DHT22;49504;48.336;14.472;2023-05-10T08:13:57;24.80;48.90
63371;DHT22;49504;48.336;14.472;2023-05-10T08:17:18;24.80;49.10
63371;DHT22;49504;48.336;14.472;2023-05-10T08:20:39;24.80;48.90
63371;DHT22;49504;48.336;14.472;2023-05-10T08:24:00;24.80;49.10
63371;DHT22;49504;48.336;14.472;2023-05-10T08:27:23;24.80;49.00
63371;DHT22;49504;48.336;14.472;2023-05-10T08:30:44;24.90;49.10
63371;DHT22;49504;48.336;14.472;2023-05-10T08:34:05;24.80;48.80
63371;DHT22;49504;48.336;14.472;2023-05-10T08:37:29;24.80;48.80
63371;DHT22;49504;48.336;14.472;2023-05-10T08:40:54;24.80;48.70
63371;DHT22;49504;48.336;14.472;2023-05-10T08:44:17;24.80;49.30
63371;DHT22;49504;48.336;14.472;2023-05-10T08:47:39;24.80;48.50
63371;DHT22;49504;48.336;14.472;2023-05-10T08:51:51;24.80;48.00
63371;DHT22;49504;48.336;14.472;2023-05-10T08:55:15;24.80;48.60
63371;DHT22;49504;48.336;14.472;2023-05-10T08:58:37;24.80;48.70
63371;DHT22;49504;48.336;14.472;2023-05-10T09:01:59;24.80;48.60
63371;DHT22;49504;48.336;14.472;2023-05-10T09:05:20;24.80;48.70
63371;DHT22;49504;48.336;14.472;2023-05-10T09:08:43;24.80;48.70
63371;DHT22;49504;48.336;14.472;2023-05-10T09:12:06;24.80;48.70
63371;DHT22;49504;48.336;14.472;2023-05-10T09:15:28;24.80;48.60
63371;DHT22;49504;48.336;14.472;2023-05-10T09:18:49;24.80;48.60
63371;DHT22;49504;48.336;14.472;2023-05-10T09:22:11;24.80;48.60
63371;DHT22;49504;48.336;14.472;2023-05-10T09:25:33;24.80;48.60
63371;DHT22;49504;48.336;14.472;2023-05-10T09:28:56;24.80;48.50
63371;DHT22;49504;48.336;14.472;2023-05-10T09:32:18;24.80;48.50
63371;DHT22;49504;48.336;14.472;2023-05-10T09:35:39;24.80;48.50
63371;DHT22;49504;48.336;14.472;2023-05-10T09:39:00;24.80;48.70
63371;DHT22;49504;48.336;14.472;2023-05-10T09:42:23;24.90;48.60
63371;DHT22;49504;48.336;14.472;2023-05-10T09:45:48;24.80;48.70
63371;DHT22;49504;48.336;14.472;2023-05-10T09:49:09;24.80;48.60
63371;DHT22;49504;48.336;14.472;2023-05-10T09:52:48;24.80;48.00
63371;DHT22;49504;48.336;14.472;2023-05-10T09:56:10;24.80;48.50
63371;DHT22;49504;48.336;14.472;2023-05-10T09:59:33;24.80;48.50
63371;DHT22;49504;48.336;14.472;2023-05-10T10:02:56;24.80;48.50
63371;DHT22;49504;48.336;14.472;2023-05-10T10:06:19;24.80;48.50
63371;DHT22;49504;48.336;14.472;2023-05-10T10:09:42;24.80;48.50
63371;DHT22;49504;48.336;14.472;2023-05-10T10:13:03;24.80;48.80
63371;DHT22;49504;48.336;14.472;2023-05-10T10:16:24;24.80;48.70
63371;DHT22;49504;48.336;14.472;2023-05-10T10:19:46;24.80;48.60
63371;DHT22;49504;48.336;14.472;2023-05-10T10:23:09;24.80;48.50
63371;DHT22;49504;48.336;14.472;2023-05-10T10:26:33;24.80;48.70
63371;DHT22;49504;48.336;14.472;2023-05-10T10:29:59;24.80;48.80
63371;DHT22;49504;48.336;14.472;2023-05-10T10:33:36;24.80;48.70
63371;DHT22;49504;48.336;14.472;2023-05-10T10:37:04;24.80;48.70
63371;DHT22;49504;48.336;14.472;2023-05-10T10:40:26;24.80;48.70
63371;DHT22;49504;48.336;14.472;2023-05-10T10:43:49;24.80;48.70
63371;DHT22;49504;48.336;14.472;2023-05-10T10:47:46;24.80;48.80
63371;DHT22;49504;48.336;14.472;2023-05-10T10:51:08;24.80;48.70
63371;DHT22;49504;48.336;14.472;2023-05-10T10:57:23;24.80;48.10
63371;DHT22;49504;48.336;14.472;2023-05-10T11:00:44;24.80;48.70
63371;DHT22;49504;48.336;14.472;2023-05-10T11:04:17;24.90;48.70
63371;DHT22;49504;48.336;14.472;2023-05-10T11:07:51;24.80;48.70
63371;DHT22;49504;48.336;14.472;2023-05-10T11:11:14;24.80;48.70
63371;DHT22;49504;48.336;14.472;2023-05-10T11:14:37;24.80;48.70
63371;DHT22;49504;48.336;14.472;2023-05-10T11:17:58;24.80;48.70
63371;DHT22;49504;48.336;14.472;2023-05-10T11:21:20;24.80;48.80
63371;DHT22;49504;48.336;14.472;2023-05-10T11:24:56;24.80;48.70
63371;DHT22;49504;48.336;14.472;2023-05-10T11:28:18;24.80;48.80
63371;DHT22;49504;48.336;14.472;2023-05-10T11:31:43;24.80;48.90
63371;DHT22;49504;48.336;14.472;2023-05-10T11:35:08;24.80;48.70
63371;DHT22;49504;48.336;14.472;2023-05-10T11:38:32;24.80;48.80
63371;DHT22;49504;48.336;14.472;2023-05-10T11:41:54;24.80;48.70
63371;DHT22;49504;48.336;14.472;2023-05-10T11:45:16;24.80;48.80
63371;DHT22;49504;48.336;14.472;2023-05-10T11:48:39;24.80;48.70
63371;DHT22;49504;48.336;14.472;2023-05-10T11:52:06;24.80;48.50
63371;DHT22;49504;48.336;14.472;2023-05-10T11:55:28;24.80;48.70
63371;DHT22;49504;48.336;14.472;2023-05-10T11:58:53;24.80;48.50
63371;DHT22;49504;48.336;14.472;2023-05-10T12:02:15;24.90;48.70
63371;DHT22;49504;48.336;14.472;2023-05-10T12:05:38;24.90;48.60
63371;DHT22;49504;48.336;14.472;2023-05-10T12:08:59;24.80;48.70
63371;DHT22;49504;48.336;14.472;2023-05-10T12:12:22;24.80;48.80
63371;DHT22;49504;48.336;14.472;2023-05-10T12:15:43;24.90;48.80
63371;DHT22;49504;48.336;14.472;2023-05-10T12:19:04;24.90;49.00
63371;DHT22;49504;48.336;14.472;2023-05-10T12:22:27;24.90;49.40
63371;DHT22;49504;48.336;14.472;2023-05-10T12:25:48;24.90;50.20
63371;DHT22;49504;48.336;14.472;2023-05-10T12:29:13;25.00;49.60
63371;DHT22;49504;48.336;14.472;2023-05-10T12:32:38;25.00;50.10
63371;DHT22;49504;48.336;14.472;2023-05-10T12:36:00;24.90;49.60
63371;DHT22;49504;48.336;14.472;2023-05-10T12:39:22;25.00;50.50
63371;DHT22;49504;48.336;14.472;2023-05-10T12:42:44;25.00;51.80
63371;DHT22;49504;48.336;14.472;2023-05-10T12:46:06;25.00;51.00
63371;DHT22;49504;48.336;14.472;2023-05-10T12:49:28;25.10;51.20
63371;DHT22;49504;48.336;14.472;2023-05-10T12:52:49;25.10;51.00
63371;DHT22;49504;48.336;14.472;2023-05-10T12:57:58;25.10;50.10
63371;DHT22;49504;48.336;14.472;2023-05-10T13:01:19;25.10;50.40
63371;DHT22;49504;48.336;14.472;2023-05-10T13:04:40;25.10;50.10
63371;DHT22;49504;48.336;14.472;2023-05-10T13:08:29;25.10;49.70
63371;DHT22;49504;48.336;14.472;2023-05-10T13:14:53;25.10;49.50
63371;DHT22;49504;48.336;14.472;2023-05-10T13:18:14;25.10;50.30
63371;DHT22;49504;48.336;14.472;2023-05-10T13:21:35;25.10;50.40
63371;DHT22;49504;48.336;14.472;2023-05-10T13:24:56;25.10;50.00
63371;DHT22;49504;48.336;14.472;2023-05-10T13:28:17;25.10;49.90
63371;DHT22;49504;48.336;14.472;2023-05-10T13:31:40;25.10;50.30
63371;DHT22;49504;48.336;14.472;2023-05-10T13:35:01;25.10;50.20
63371;DHT22;49504;48.336;14.472;2023-05-10T13:38:23;25.10;50.20
63371;DHT22;49504;48.336;14.472;2023-05-10T13:42:28;25.10;49.20
63371;DHT22;49504;48.336;14.472;2023-05-10T13:45:49;25.10;49.40
63371;DHT22;49504;48.336;14.472;2023-05-10T13:49:10;25.10;50.40
63371;DHT22;49504;48.336;14.472;2023-05-10T13:52:32;25.10;49.80
63371;DHT22;49504;48.336;14.472;2023-05-10T13:55:53;25.10;49.90
63371;DHT22;49504;48.336;14.472;2023-05-10T13:59:16;25.10;50.00
63371;DHT22;49504;48.336;14.472;2023-05-10T14:02:37;25.10;49.80
63371;DHT22;49504;48.336;14.472;2023-05-10T14:08:47;25.10;49.20
63371;DHT22;49504;48.336;14.472;2023-05-10T14:12:08;25.10;49.70
63371;DHT22;49504;48.336;14.472;2023-05-10T14:15:29;25.10;49.50
63371;DHT22;49504;48.336;14.472;2023-05-10T14:18:50;25.10;49.40
63371;DHT22;49504;48.336;14.472;2023-05-10T14:22:11;25.10;49.50
63371;DHT22;49504;48.336;14.472;2023-05-10T14:25:34;25.10;49.60
63371;DHT22;49504;48.336;14.472;2023-05-10T14:28:59;25.10;49.60
63371;DHT22;49504;48.336;14.472;2023-05-10T14:32:21;25.10;49.60
63371;DHT22;49504;48.336;14.472;2023-05-10T14:35:44;25.10;49.50
63371;DHT22;49504;48.336;14.472;2023-05-10T14:40:29;25.10;49.00
63371;DHT22;49504;48.336;14.472;2023-05-10T14:43:50;25.10;49.50
63371;DHT22;49504;48.336;14.472;2023-05-10T14:47:11;25.10;49.50
63371;DHT22;49504;48.336;14.472;2023-05-10T14:50:33;25.10;49.50
63371;DHT22;49504;48.336;14.472;2023-05-10T14:53:54;25.10;49.70
63371;DHT22;49504;48.336;14.472;2023-05-10T14:57:17;25.10;50.20
63371;DHT22;49504;48.336;14.472;2023-05-10T15:00:38;25.00;49.70
63371;DHT22;49504;48.336;14.472;2023-05-10T15:04:00;25.10;50.00
63371;DHT22;49504;48.336;14.472;2023-05-10T15:07:22;25.10;50.10
63371;DHT22;49504;48.336;14.472;2023-05-10T15:10:43;25.10;50.50
63371;DHT22;49504;48.336;14.472;2023-05-10T15:14:05;25.10;50.40
63371;DHT22;49504;48.336;14.472;2023-05-10T15:17:26;25.10;50.10
63371;DHT22;49504;48.336;14.472;2023-05-10T15:20:47;25.10;50.50
63371;DHT22;49504;48.336;14.472;2023-05-10T15:24:09;25.10;50.10
63371;DHT22;49504;48.336;14.472;2023-05-10T15:27:30;25.10;50.40
63371;DHT22;49504;48.336;14.472;2023-05-10T15:30:52;25.10;50.90
63371;DHT22;49504;48.336;14.472;2023-05-10T15:34:14;25.10;50.50
63371;DHT22;49504;48.336;14.472;2023-05-10T15:37:35;25.10;50.70
63371;DHT22;49504;48.336;14.472;2023-05-10T15:40:56;25.10;50.80
63371;DHT22;49504;48.336;14.472;2023-05-10T15:44:18;25.10;50.60
63371;DHT22;49504;48.336;14.472;2023-05-10T15:47:40;25.10;50.70
63371;DHT22;49504;48.336;14.472;2023-05-10T15:51:02;25.10;50.50
63371;DHT22;49504;48.336;14.472;2023-05-10T15:54:24;25.10;50.30
63371;DHT22;49504;48.336;14.472;2023-05-10T15:57:57;25.10;49.50
63371;DHT22;49504;48.336;14.472;2023-05-10T16:01:19;25.10;49.80
63371;DHT22;49504;48.336;14.472;2023-05-10T16:04:40;25.10;49.90
63371;DHT22;49504;48.336;14.472;2023-05-10T16:08:01;25.10;49.80
63371;DHT22;49504;48.336;14.472;2023-05-10T16:11:23;25.10;50.00
63371;DHT22;49504;48.336;14.472;2023-05-10T16:14:45;25.10;50.00
63371;DHT22;49504;48.336;14.472;2023-05-10T16:18:06;25.10;49.70
63371;DHT22;49504;48.336;14.472;2023-05-10T16:21:29;25.10;50.10
63371;DHT22;49504;48.336;14.472;2023-05-10T16:24:50;25.10;49.70
63371;DHT22;49504;48.336;14.472;2023-05-10T16:28:11;25.10;49.60
63371;DHT22;49504;48.336;14.472;2023-05-10T16:31:34;25.10;50.00
63371;DHT22;49504;48.336;14.472;2023-05-10T16:34:55;25.10;49.90
63371;DHT22;49504;48.336;14.472;2023-05-10T16:38:16;25.10;49.80
63371;DHT22;49504;48.336;14.472;2023-05-10T16:41:37;25.10;49.60
63371;DHT22;49504;48.336;14.472;2023-05-10T16:44:58;25.10;49.60
63371;DHT22;49504;48.336;14.472;2023-05-10T16:48:21;25.20;49.60
63371;DHT22;49504;48.336;14.472;2023-05-10T16:51:42;25.10;49.50
63371;DHT22;49504;48.336;14.472;2023-05-10T16:55:03;25.10;49.50
63371;DHT22;49504;48.336;14.472;2023-05-10T16:58:25;25.10;49.60
63371;DHT22;49504;48.336;14.472;2023-05-10T17:01:46;25.10;49.60
63371;DHT22;49504;48.336;14.472;2023-05-10T17:05:09;25.10;49.60
63371;DHT22;49504;48.336;14.472;2023-05-10T17:09:09;25.10;49.00
63371;DHT22;49504;48.336;14.472;2023-05-10T17:12:31;25.10;49.70
63371;DHT22;49504;48.336;14.472;2023-05-10T17:15:52;25.10;49.50
63371;DHT22;49504;48.336;14.472;2023-05-10T17:19:13;25.20;49.80
63371;DHT22;49504;48.336;14.472;2023-05-10T17:22:34;25.20;50.10
63371;DHT22;49504;48.336;14.472;2023-05-10T17:25:57;25.20;50.20
63371;DHT22;49504;48.336;14.472;2023-05-10T17:29:18;25.20;49.80
63371;DHT22;49504;48.336;14.472;2023-05-10T17:32:39;25.20;49.70
63371;DHT22;49504;48.336;14.472;2023-05-10T17:36:00;25.20;50.10
63371;DHT22;49504;48.336;14.472;2023-05-10T17:39:21;25.20;50.20
63371;DHT22;49504;48.336;14.472;2023-05-10T17:42:44;25.20;49.90
63371;DHT22;49504;48.336;14.472;2023-05-10T17:46:05;25.20;49.80
63371;DHT22;49504;48.336;14.472;2023-05-10T17:49:27;25.20;49.80
63371;DHT22;49504;48.336;14.472;2023-05-10T17:52:48;25.20;50.20
63371;DHT22;49504;48.336;14.472;2023-05-10T17:56:09;25.20;50.00
63371;DHT22;49504;48.336;14.472;2023-05-10T17:59:33;25.20;50.10
63371;DHT22;49504;48.336;14.472;2023-05-10T18:02:55;25.20;50.30
63371;DHT22;49504;48.336;14.472;2023-05-10T18:06:16;25.20;50.50
63371;DHT22;49504;48.336;14.472;2023-05-10T18:09:37;25.20;50.60
63371;DHT22;49504;48.336;14.472;2023-05-10T18:12:58;25.20;50.30
63371;DHT22;49504;48.336;14.472;2023-05-10T18:16:24;25.20;50.00
63371;DHT22;49504;48.336;14.472;2023-05-10T18:19:45;25.20;49.80
63371;DHT22;49504;48.336;14.472;2023-05-10T18:23:06;25.20;49.80
63371;DHT22;49504;48.336;14.472;2023-05-10T18:26:27;25.20;50.30
63371;DHT22;49504;48.336;14.472;2023-05-10T18:29:49;25.20;49.70
63371;DHT22;49504;48.336;14.472;2023-05-10T18:33:11;25.20;49.60
63371;DHT22;49504;48.336;14.472;2023-05-10T18:36:32;25.20;50.10
63371;DHT22;49504;48.336;14.472;2023-05-10T18:39:54;25.20;50.10
63371;DHT22;49504;48.336;14.472;2023-05-10T18:43:15;25.20;50.50
63371;DHT22;49504;48.336;14.472;2023-05-10T18:46:36;25.20;49.40
63371;DHT22;49504;48.336;14.472;2023-05-10T18:49:58;25.20;49.60
63371;DHT22;49504;48.336;14.472;2023-05-10T18:53:20;25.20;49.50
63371;DHT22;49504;48.336;14.472;2023-05-10T18:59:22;25.20;49.10
63371;DHT22;49504;48.336;14.472;2023-05-10T19:02:43;25.20;49.60
63371;DHT22;49504;48.336;14.472;2023-05-10T19:06:05;25.20;49.80
63371;DHT22;49504;48.336;14.472;2023-05-10T19:09:26;25.20;49.60
63371;DHT22;49504;48.336;14.472;2023-05-10T19:12:47;25.20;49.50
63371;DHT22;49504;48.336;14.472;2023-05-10T19:16:12;25.20;49.70
63371;DHT22;49504;48.336;14.472;2023-05-10T19:19:34;25.20;50.00
63371;DHT22;49504;48.336;14.472;2023-05-10T19:22:55;25.20;50.20
63371;DHT22;49504;48.336;14.472;2023-05-10T19:26:17;25.20;50.30
63371;DHT22;49504;48.336;14.472;2023-05-10T19:30:26;25.20;49.40
63371;DHT22;49504;48.336;14.472;2023-05-10T19:33:47;25.20;49.70
63371;DHT22;49504;48.336;14.472;2023-05-10T19:37:08;25.20;49.60
63371;DHT22;49504;48.336;14.472;2023-05-10T19:40:30;25.20;49.70
63371;DHT22;49504;48.336;14.472;2023-05-10T19:48:33;25.10;49.20
63371;DHT22;49504;48.336;14.472;2023-05-10T19:51:54;25.20;49.80
63371;DHT22;49504;48.336;14.472;2023-05-10T19:55:27;25.20;49.60
63371;DHT22;49504;48.336;14.472;2023-05-10T19:58:48;25.10;49.60
63371;DHT22;49504;48.336;14.472;2023-05-10T20:02:09;25.10;49.60
63371;DHT22;49504;48.336;14.472;2023-05-10T20:05:32;25.10;49.70
63371;DHT22;49504;48.336;14.472;2023-05-10T20:08:53;25.10;49.80
63371;DHT22;49504;48.336;14.472;2023-05-10T20:12:14;25.10;49.70
63371;DHT22;49504;48.336;14.472;2023-05-10T20:15:35;25.10;49.70
63371;DHT22;49504;48.336;14.472;2023-05-10T20:18:57;25.10;49.70
63371;DHT22;49504;48.336;14.472;2023-05-10T20:22:19;25.10;49.90
63371;DHT22;49504;48.336;14.472;2023-05-10T20:27:15;25.10;49.30
63371;DHT22;49504;48.336;14.472;2023-05-10T20:30:37;25.10;49.90
63371;DHT22;49504;48.336;14.472;2023-05-10T20:33:58;25.10;50.00
63371;DHT22;49504;48.336;14.472;2023-05-10T20:37:20;25.10;49.90
63371;DHT22;49504;48.336;14.472;2023-05-10T20:40:41;25.10;50.00
63371;DHT22;49504;48.336;14.472;2023-05-10T20:44:04;25.10;50.00
63371;DHT22;49504;48.336;14.472;2023-05-10T20:47:25;25.10;50.10
63371;DHT22;49504;48.336;14.472;2023-05-10T20:50:47;25.10;50.20
63371;DHT22;49504;48.336;14.472;2023-05-10T20:54:08;25.10;50.30
63371;DHT22;49504;48.336;14.472;2023-05-10T20:57:30;25.10;50.20
63371;DHT22;49504;48.336;14.472;2023-05-10T21:00:53;25.10;50.20
63371;DHT22;49504;48.336;14.472;2023-05-10T21:04:15;25.10;50.30
63371;DHT22;49504;48.336;14.472;2023-05-10T21:42:41;25.30;49.90
63371;DHT22;49504;48.336;14.472;2023-05-10T21:46:02;25.30;50.00
63371;DHT22;49504;48.336;14.472;2023-05-10T21:49:24;25.20;49.70
63371;DHT22;49504;48.336;14.472;2023-05-10T21:52:47;25.20;50.00
63371;DHT22;49504;48.336;14.472;2023-05-10T21:59:22;25.10;49.50
63371;DHT22;49504;48.336;14.472;2023-05-10T22:02:44;25.10;50.10
63371;DHT22;49504;48.336;14.472;2023-05-10T22:06:05;25.10;50.10
63371;DHT22;49504;48.336;14.472;2023-05-10T22:09:50;25.10;49.50
63371;DHT22;49504;48.336;14.472;2023-05-10T22:13:12;25.10;50.10
63371;DHT22;49504;48.336;14.472;2023-05-10T22:16:33;25.10;50.10
63371;DHT22;49504;48.336;14.472;2023-05-10T22:19:55;25.10;50.10
63371;DHT22;49504;48.336;14.472;2023-05-10T22:23:17;25.10;50.10
63371;DHT22;49504;48.336;14.472;2023-05-10T22:26:40;25.10;50.10
63371;DHT22;49504;48.336;14.472;2023-05-10T22:33:03;25.00;49.50
63371;DHT22;49504;48.336;14.472;2023-05-10T22:36:25;25.00;50.10
63371;DHT22;49504;48.336;14.472;2023-05-10T22:39:46;25.10;50.20
63371;DHT22;49504;48.336;14.472;2023-05-10T22:43:08;25.10;50.20
63371;DHT22;49504;48.336;14.472;2023-05-10T22:46:30;25.00;50.20
63371;DHT22;49504;48.336;14.472;2023-05-10T22:49:54;25.00;50.20
63371;DHT22;49504;48.336;14.472;2023-05-10T22:53:16;25.10;50.40
63371;DHT22;49504;48.336;14.472;2023-05-10T22:56:39;25.10;50.30
63371;DHT22;49504;48.336;14.472;2023-05-10T23:00:02;25.00;50.30
63371;DHT22;49504;48.336;14.472;2023-05-10T23:06:11;25.00;49.70
63371;DHT22;49504;48.336;14.472;2023-05-10T23:09:36;25.00;50.50
63371;DHT22;49504;48.336;14.472;2023-05-10T23:12:58;25.00;50.20
63371;DHT22;49504;48.336;14.472;2023-05-10T23:16:21;25.00;50.40
63371;DHT22;49504;48.336;14.472;2023-05-10T23:19:44;25.00;50.30
63371;DHT22;49504;48.336;14.472;2023-05-10T23:23:10;25.10;50.50
63371;DHT22;49504;48.336;14.472;2023-05-10T23:26:33;25.00;50.30
63371;DHT22;49504;48.336;14.472;2023-05-10T23:29:56;25.00;50.40
63371;DHT22;49504;48.336;14.472;2023-05-10T23:33:19;25.00;50.40
63371;DHT22;49504;48.336;14.472;2023-05-10T23:39:22;25.00;49.80
63371;DHT22;49504;48.336;14.472;2023-05-10T23:42:45;25.00;50.60
63371;DHT22;49504;48.336;14.472;2023-05-10T23:46:07;25.00;50.40
63371;DHT22;49504;48.336;14.472;2023-05-10T23:49:30;25.00;50.40
63371;DHT22;49504;48.336;14.472;2023-05-10T23:52:53;25.00;50.40
63371;DHT22;49504;48.336;14.472;2023-05-10T23:56:36;25.00;50.60
